Time;durP1;ratioP1;P1;durP2;ratioP2;P2;SDS_P1;SDS_P2;PMS_P1;PMS_P2;Temp;Humidity;BMP_temperature;BMP_pressure;BME280_temperature;BME280_humidity;BME280_pressure;Samples;Min_cycle;Max_cycle;Signal;HPM_P1;HPM_P2
2021/12/24 00:01:29;;;;;;;6.38;3.40;;;;;;;3.09;62.42;99969.88;4989632;28;20336;-70
2021/12/24 00:03:55;;;;;;;7.30;3.10;;;;;;;3.16;62.01;99971.44;5002232;28;20172;-71
2021/12/24 00:06:20;;;;;;;6.25;3.15;;;;;;;3.68;60.44;99955.56;4991380;28;20148;-71
2021/12/24 00:08:47;;;;;;;5.00;4.00;;;;;;;3.39;61.39;99962.31;4991662;28;20065;-71
2021/12/24 00:11:14;;;;;;;4.90;3.08;;;;;;;3.29;61.68;99960.81;4989070;28;20030;-71
2021/12/24 00:13:45;;;;;;;5.22;3.55;;;;;;;3.27;61.90;99965.13;4988454;28;20114;-71
2021/12/24 00:16:23;;;;;;;5.95;2.83;;;;;;;3.50;61.18;99956.88;4989285;28;20525;-71
2021/12/24 00:18:59;;;;;;;4.65;3.20;;;;;;;3.92;59.86;99957.50;4986069;28;20046;-71
2021/12/24 00:37:23;;;;;;;8.23;3.28;;;;;;;3.81;60.06;99949.19;4992757;28;20104;-69
2021/12/24 00:40:05;;;;;;;8.68;3.30;;;;;;;3.78;60.45;99944.06;5001274;28;20441;-68
2021/12/24 00:42:30;;;;;;;5.20;3.25;;;;;;;3.60;60.86;99947.97;4984680;28;20357;-68
2021/12/24 00:44:58;;;;;;;5.30;3.33;;;;;;;3.77;60.80;99947.56;4984848;28;20316;-68
2021/12/24 00:47:25;;;;;;;5.90;2.88;;;;;;;3.50;61.62;99944.81;4990112;28;20390;-68
2021/12/24 00:49:53;;;;;;;5.10;3.28;;;;;;;4.04;59.52;99942.53;4987115;28;20076;-68
2021/12/24 00:55:02;;;;;;;4.70;3.45;;;;;;;3.84;60.33;99943.91;4986768;28;20120;-68
2021/12/24 00:57:28;;;;;;;5.78;3.63;;;;;;;3.50;61.40;99939.63;4985040;28;20053;-71
2021/12/24 00:59:53;;;;;;;4.07;3.03;;;;;;;3.58;61.64;99942.00;5002286;28;20411;-71
2021/12/24 01:02:19;;;;;;;4.95;3.20;;;;;;;3.82;60.28;99935.34;4986947;28;20073;-70
2021/12/24 01:04:44;;;;;;;3.95;2.47;;;;;;;4.04;60.06;99933.03;4987235;28;20117;-69
2021/12/24 01:07:10;;;;;;;6.47;3.28;;;;;;;3.59;61.10;99939.41;4984488;28;20026;-69
2021/12/24 01:09:36;;;;;;;4.57;2.78;;;;;;;3.84;60.40;99933.56;4989473;28;20030;-68
2021/12/24 01:12:01;;;;;;;4.93;3.30;;;;;;;4.11;59.76;99931.13;4986448;28;20113;-68
2021/12/24 01:14:30;;;;;;;5.95;3.65;;;;;;;3.79;60.24;99933.69;4993528;28;20030;-70
2021/12/24 01:17:09;;;;;;;4.97;2.90;;;;;;;4.10;59.62;99929.44;4994282;28;20421;-71
2021/12/24 01:19:38;;;;;;;5.93;2.72;;;;;;;3.81;60.44;99915.56;4993611;28;20093;-71
2021/12/24 01:37:49;;;;;;;5.32;2.88;;;;;;;4.03;59.63;99933.94;5000737;28;20076;-71
2021/12/24 01:38:33;;;;;;;4.35;2.75;;;;;;;4.08;59.88;99931.22;4987722;28;20349;-71
2021/12/24 01:43:26;;;;;;;5.20;3.20;;;;;;;3.71;60.52;99932.19;4989081;28;20026;-70
2021/12/24 01:45:53;;;;;;;4.72;3.25;;;;;;;4.10;59.72;99927.69;4984712;28;20578;-72
2021/12/24 01:48:20;;;;;;;5.10;3.47;;;;;;;4.24;58.83;99919.53;4983570;28;20177;-72
2021/12/24 01:50:54;;;;;;;5.20;2.75;;;;;;;4.05;59.32;99926.09;5002266;28;20046;-72
2021/12/24 01:53:24;;;;;;;4.80;2.97;;;;;;;4.15;59.26;99906.88;4990633;28;20462;-72
2021/12/24 01:55:54;;;;;;;5.88;3.30;;;;;;;4.09;59.01;99909.63;4990407;28;20037;-72
2021/12/24 01:58:23;;;;;;;5.43;3.17;;;;;;;3.92;59.47;99910.94;4974421;28;20065;-71
2021/12/24 02:00:52;;;;;;;3.83;2.63;;;;;;;4.06;58.90;99917.47;4985033;28;20053;-71
2021/12/24 02:03:20;;;;;;;7.03;3.37;;;;;;;4.07;59.28;99908.81;4986940;28;20096;-71
2021/12/24 02:05:46;;;;;;;7.18;3.30;;;;;;;4.15;58.84;99906.88;4984219;28;20144;-71
2021/12/24 02:08:13;;;;;;;4.97;3.22;;;;;;;4.07;58.99;99908.81;4993658;28;20045;-72
2021/12/24 02:10:40;;;;;;;5.32;3.15;;;;;;;3.79;59.89;99907.00;4983690;28;20048;-72
2021/12/24 02:13:06;;;;;;;4.45;3.40;;;;;;;4.00;59.44;99914.16;4987373;28;20034;-71
2021/12/24 02:28:50;;;;;;;5.25;2.92;;;;;;;3.99;59.59;99886.63;4982862;28;20042;-72
2021/12/24 02:31:22;;;;;;;3.97;2.63;;;;;;;4.20;59.04;99889.47;4987467;28;20061;-71
2021/12/24 02:33:48;;;;;;;4.65;3.15;;;;;;;4.22;58.46;99893.69;4990999;28;20480;-71
2021/12/24 02:36:14;;;;;;;5.57;3.63;;;;;;;4.19;58.83;99892.97;5002073;28;20041;-71
2021/12/24 02:38:40;;;;;;;5.57;2.85;;;;;;;4.35;58.11;99896.78;4997956;28;20052;-72
2021/12/24 02:41:08;;;;;;;5.72;3.10;;;;;;;4.30;58.20;99896.09;5002140;28;20405;-72
2021/12/24 02:43:34;;;;;;;3.83;2.47;;;;;;;4.43;58.04;99886.19;4991664;28;20531;-73
2021/12/24 02:46:08;;;;;;;4.93;2.60;;;;;;;4.43;58.10;99883.59;4992472;28;20049;-74
2021/12/24 02:53:58;;;;;;;4.03;1.83;;;;;;;4.20;58.37;99871.38;4983728;28;20074;-72
2021/12/24 02:56:33;;;;;;;4.57;2.72;;;;;;;4.37;57.93;99876.06;5002625;28;20069;-71
2021/12/24 02:59:00;;;;;;;4.13;2.50;;;;;;;4.21;58.31;99878.25;4983966;28;20448;-72
2021/12/24 03:01:32;;;;;;;5.80;3.45;;;;;;;3.92;59.05;99882.50;4999731;28;20042;-72
2021/12/24 03:03:58;;;;;;;5.03;2.40;;;;;;;4.16;58.57;99880.09;4980936;28;20136;-72
2021/12/24 03:06:29;;;;;;;3.88;2.13;;;;;;;4.06;58.41;99884.69;4992703;28;20040;-72
2021/12/24 03:08:56;;;;;;;3.92;2.28;;;;;;;3.98;59.30;99895.28;4982020;28;20034;-72
2021/12/24 03:11:22;;;;;;;5.40;2.55;;;;;;;3.84;59.92;99887.03;4986794;28;20037;-72
2021/12/24 03:13:49;;;;;;;4.10;2.50;;;;;;;4.03;59.36;99887.38;4996051;28;20129;-72
2021/12/24 03:16:15;;;;;;;3.90;2.00;;;;;;;4.11;58.99;99889.75;4999865;28;20082;-72
2021/12/24 03:18:42;;;;;;;3.22;1.80;;;;;;;4.10;58.87;99877.72;5003027;28;20656;-72
2021/12/24 03:26:48;;;;;;;1.92;1.30;;;;;;;3.85;59.89;99874.97;5004534;28;20034;-71
2021/12/24 03:29:17;;;;;;;2.42;1.17;;;;;;;4.21;58.73;99871.31;4985541;28;20567;-72
2021/12/24 03:31:45;;;;;;;2.17;1.55;;;;;;;4.33;58.49;99857.16;4987926;28;20036;-72
2021/12/24 03:34:16;;;;;;;1.90;0.90;;;;;;;4.40;58.33;99857.84;4985135;28;20587;-70
2021/12/24 03:36:42;;;;;;;;;;;;;;;4.49;58.22;99848.94;4987738;28;20072;-70
2021/12/24 03:39:11;;;;;;;1.58;1.02;;;;;;;4.46;58.55;99849.06;4989672;28;20474;-69
2021/12/24 03:41:37;;;;;;;1.55;0.80;;;;;;;4.33;58.18;99858.91;4991706;28;20042;-70
2021/12/24 03:44:04;;;;;;;1.90;0.75;;;;;;;4.35;58.39;99862.31;4987456;28;20034;-68
2021/12/24 03:46:38;;;;;;;1.73;0.65;;;;;;;4.38;58.31;99875.97;5005398;28;20080;-72
2021/12/24 03:49:09;;;;;;;2.17;0.60;;;;;;;4.27;58.91;99872.88;4991181;28;20110;-71
2021/12/24 03:51:50;;;;;;;1.92;0.80;;;;;;;4.45;58.17;99868.03;5003534;28;20041;-72
2021/12/24 03:57:00;;;;;;;1.25;0.47;;;;;;;4.39;58.75;99857.00;4988268;28;20041;-72
2021/12/24 03:59:44;;;;;;;1.73;0.50;;;;;;;4.34;58.87;99856.28;4987145;28;20045;-71
2021/12/24 04:02:28;;;;;;;1.60;0.50;;;;;;;4.45;58.38;99852.50;4988741;28;20053;-71
2021/12/24 04:05:14;;;;;;;0.95;0.50;;;;;;;4.46;58.85;99854.22;4962917;28;20113;-72
2021/12/24 04:07:58;;;;;;;0.73;0.30;;;;;;;4.39;58.88;99851.81;4989157;28;20104;-72
2021/12/24 04:10:40;;;;;;;1.13;0.30;;;;;;;4.49;58.36;99843.78;4983065;28;20153;-72
2021/12/24 04:13:26;;;;;;;1.50;0.50;;;;;;;4.32;59.14;99850.31;4997116;28;20045;-71
2021/12/24 04:15:51;;;;;;;1.10;0.50;;;;;;;4.41;58.88;99850.03;4987410;28;20026;-71
2021/12/24 04:26:32;;;;;;;1.00;0.45;;;;;;;4.35;59.00;99863.16;5003969;28;20583;-71
2021/12/24 04:28:58;;;;;;;1.55;0.40;;;;;;;4.50;58.70;99858.38;4977169;28;20084;-72
2021/12/24 04:31:31;;;;;;;0.85;0.32;;;;;;;4.52;58.60;99841.94;5003998;28;20121;-71
2021/12/24 04:34:19;;;;;;;1.05;0.45;;;;;;;4.58;58.28;99846.06;4988857;28;20029;-72
2021/12/24 04:37:34;;;;;;;1.38;0.63;;;;;;;4.62;58.14;99848.50;4995428;28;20146;-71
2021/12/24 05:01:12;;;;;;;1.23;0.52;;;;;;;4.50;57.77;99859.25;4988433;28;20034;-71
2021/12/24 05:01:49;;;;;;;1.25;0.65;;;;;;;4.20;58.30;99868.78;4989272;28;20317;-71
2021/12/24 05:04:15;;;;;;;1.35;0.63;;;;;;;4.23;58.29;99866.13;4987017;28;20246;-72
2021/12/24 05:06:51;;;;;;;1.65;0.47;;;;;;;4.24;57.87;99885.06;5002194;28;20042;-71
2021/12/24 05:09:23;;;;;;;4.07;0.50;;;;;;;4.21;58.08;99875.66;4975939;28;20034;-72
2021/12/24 05:11:49;;;;;;;2.58;1.25;;;;;;;4.13;58.30;99882.78;4988966;28;20412;-71
2021/12/24 05:14:18;;;;;;;2.25;1.52;;;;;;;4.19;57.74;99892.97;4985645;28;20412;-71
2021/12/24 05:17:03;;;;;;;3.55;1.83;;;;;;;3.82;58.57;99888.81;4986578;28;20112;-71
2021/12/24 05:22:49;;;;;;;5.55;2.40;;;;;;;3.98;58.39;99895.28;5001706;28;20033;-71
2021/12/24 05:25:18;;;;;;;5.40;3.25;;;;;;;4.08;57.84;99889.84;4992559;28;20053;-68
2021/12/24 05:27:44;;;;;;;6.93;2.83;;;;;;;3.98;57.89;99895.28;4973625;28;20096;-68
2021/12/24 05:30:10;;;;;;;6.82;3.35;;;;;;;3.92;58.06;99890.28;4987853;28;20496;-68
2021/12/24 05:32:36;;;;;;;6.45;3.15;;;;;;;3.65;58.91;99896.19;4987698;28;20034;-68
2021/12/24 05:35:02;;;;;;;7.28;3.97;;;;;;;3.74;58.48;99891.63;5000257;28;20262;-68
2021/12/24 05:37:28;;;;;;;5.97;3.30;;;;;;;3.80;58.30;99895.78;4985768;28;20408;-68
2021/12/24 05:39:53;;;;;;;6.57;3.65;;;;;;;3.68;57.96;99889.19;4983789;28;20040;-69
2021/12/24 05:42:27;;;;;;;8.23;4.43;;;;;;;3.67;58.31;99884.06;5001845;28;20538;-68
2021/12/24 05:45:02;;;;;;;13.40;4.72;;;;;;;3.54;58.29;99879.25;4981856;28;20041;-71
2021/12/24 05:47:52;;;;;;;8.65;4.53;;;;;;;3.34;58.67;99877.19;4986823;28;20050;-71
2021/12/24 05:50:22;;;;;;;9.85;4.65;;;;;;;3.16;59.12;99882.78;5000964;28;20637;-71
2021/12/24 05:52:47;;;;;;;9.10;4.63;;;;;;;2.91;59.52;99882.53;4985149;28;20046;-71
2021/12/24 05:55:41;;;;;;;6.15;3.50;;;;;;;2.97;59.38;99893.56;4999348;28;20053;-71
2021/12/24 05:58:16;;;;;;;6.90;3.67;;;;;;;3.06;58.47;99897.66;5000958;28;20040;-69
2021/12/24 06:00:43;;;;;;;9.15;4.15;;;;;;;2.91;58.94;99908.34;4999520;28;20405;-71
2021/12/24 06:03:11;;;;;;;7.70;4.20;;;;;;;2.53;59.36;99892.88;5001998;28;20327;-69
2021/12/24 06:05:38;;;;;;;7.47;3.72;;;;;;;2.98;58.50;99892.69;4984940;28;20045;-69
2021/12/24 06:08:05;;;;;;;8.07;3.67;;;;;;;2.79;58.98;99885.41;4987678;28;20038;-69
2021/12/24 06:10:31;;;;;;;9.10;4.80;;;;;;;2.75;58.81;99893.19;4985777;28;20041;-71
2021/12/24 06:12:57;;;;;;;11.65;4.97;;;;;;;2.84;58.68;99889.56;4986918;28;20026;-67
2021/12/24 06:15:25;;;;;;;8.98;4.15;;;;;;;2.91;58.33;99892.84;4983656;28;20417;-66
2021/12/24 06:17:57;;;;;;;6.75;4.38;;;;;;;3.01;57.69;99884.00;4986011;28;20124;-69
2021/12/24 06:20:25;;;;;;;8.45;3.83;;;;;;;2.94;58.11;99879.88;4985369;28;20853;-69
2021/12/24 06:22:51;;;;;;;7.35;4.15;;;;;;;2.87;58.19;99883.50;4986099;28;20215;-68
2021/12/24 06:25:19;;;;;;;6.18;2.92;;;;;;;2.85;58.15;99888.69;4985887;28;20812;-68
2021/12/24 06:27:49;;;;;;;9.88;4.35;;;;;;;2.87;57.94;99883.50;4984317;28;20058;-68
2021/12/24 06:30:15;;;;;;;7.38;3.90;;;;;;;2.87;58.34;99892.09;4984846;28;20693;-66
2021/12/24 06:32:43;;;;;;;6.05;4.28;;;;;;;2.89;58.17;99897.19;4984960;28;20065;-68
2021/12/24 06:35:11;;;;;;;6.88;3.30;;;;;;;2.79;58.31;99914.63;4984940;28;20042;-68
2021/12/24 06:37:38;;;;;;;6.22;3.83;;;;;;;2.97;57.69;99913.38;4983798;28;20048;-69
2021/12/24 06:40:05;;;;;;;7.63;3.53;;;;;;;3.00;57.60;99908.13;4975485;28;20243;-69
2021/12/24 06:42:30;;;;;;;7.13;3.67;;;;;;;2.94;57.66;99910.88;4985910;28;20033;-69
2021/12/24 06:44:56;;;;;;;10.90;4.20;;;;;;;2.83;57.93;99905.94;4991849;28;20716;-68
2021/12/24 06:47:24;;;;;;;8.48;4.35;;;;;;;2.80;57.79;99910.31;4983927;28;20120;-67
2021/12/24 06:49:49;;;;;;;7.20;4.57;;;;;;;2.81;57.70;99918.03;4985147;28;20042;-68
2021/12/24 06:52:14;;;;;;;5.80;3.55;;;;;;;2.92;57.91;99935.88;4987486;28;20761;-68
2021/12/24 06:54:40;;;;;;;5.25;3.80;;;;;;;2.52;58.56;99934.16;4982587;28;20366;-68
2021/12/24 06:57:15;;;;;;;7.07;3.80;;;;;;;2.65;58.45;99943.34;4987433;28;20160;-67
2021/12/24 06:59:42;;;;;;;6.53;3.35;;;;;;;2.72;58.18;99944.06;4998648;28;20033;-68
2021/12/24 07:02:08;;;;;;;6.70;4.03;;;;;;;2.92;57.87;99947.03;4983332;28;20030;-68
2021/12/24 07:04:33;;;;;;;7.78;4.32;;;;;;;2.75;57.54;99944.81;4982618;28;20045;-69
2021/12/24 07:06:59;;;;;;;6.53;3.65;;;;;;;2.83;57.76;99944.66;4988764;28;20030;-67
2021/12/24 07:09:24;;;;;;;5.40;3.92;;;;;;;2.72;57.72;99951.78;4984347;28;20045;-67
2021/12/24 07:11:50;;;;;;;6.72;4.18;;;;;;;2.76;57.71;99948.28;4986586;28;21450;-69
2021/12/24 07:14:15;;;;;;;7.63;4.10;;;;;;;2.82;57.13;99944.69;4983350;28;20547;-69
2021/12/24 07:16:41;;;;;;;9.52;4.45;;;;;;;2.74;57.18;99934.56;4999480;28;20038;-70
2021/12/24 07:19:13;;;;;;;10.13;3.88;;;;;;;2.70;57.33;99920.84;4984260;28;20338;-69
2021/12/24 07:21:41;;;;;;;12.90;4.03;;;;;;;2.76;57.32;99919.88;4992267;28;20034;-69
2021/12/24 07:24:09;;;;;;;7.43;4.18;;;;;;;2.77;57.26;99917.25;4984742;28;20045;-68
2021/12/24 07:26:35;;;;;;;11.82;3.85;;;;;;;2.75;57.42;99924.16;4984938;28;20042;-69
2021/12/24 07:29:01;;;;;;;5.07;3.05;;;;;;;2.76;57.20;99906.97;4985327;28;20049;-69
2021/12/24 07:31:26;;;;;;;7.18;4.00;;;;;;;2.83;57.04;99926.59;4987638;28;20034;-68
2021/12/24 07:33:52;;;;;;;7.68;3.97;;;;;;;2.82;57.14;99924.88;4977214;28;20045;-69
2021/12/24 07:36:18;;;;;;;7.72;4.50;;;;;;;2.79;57.38;99939.59;4983056;28;20700;-69
2021/12/24 07:38:43;;;;;;;9.85;4.97;;;;;;;2.84;57.29;99948.09;4983662;28;20145;-68
2021/12/24 07:41:10;;;;;;;6.40;3.80;;;;;;;2.78;57.61;99946.50;4982146;28;20112;-69
2021/12/24 07:43:37;;;;;;;4.60;3.17;;;;;;;2.78;57.23;99964.56;4988632;28;20057;-68
2021/12/24 07:46:02;;;;;;;6.50;3.38;;;;;;;2.72;57.62;99975.03;4986540;28;20042;-69
2021/12/24 07:48:30;;;;;;;8.15;3.17;;;;;;;2.70;57.47;99972.47;4977502;28;20034;-69
2021/12/24 07:53:26;;;;;;;7.00;3.33;;;;;;;2.63;57.23;99976.06;4999985;28;20041;-69
2021/12/24 07:55:58;;;;;;;6.50;2.85;;;;;;;2.50;57.17;99984.94;4991104;28;20048;-69
2021/12/24 07:58:24;;;;;;;4.68;3.60;;;;;;;2.63;57.28;99990.69;4984856;28;20037;-69
2021/12/24 08:00:51;;;;;;;4.85;3.10;;;;;;;2.52;57.54;99984.03;4983707;28;20049;-69
2021/12/24 08:03:17;;;;;;;5.10;2.65;;;;;;;2.58;57.52;99980.47;4989134;28;20575;-69
2021/12/24 08:05:43;;;;;;;9.48;3.38;;;;;;;2.64;57.14;99988.06;4986707;28;20054;-68
2021/12/24 08:08:12;;;;;;;4.95;3.75;;;;;;;2.72;57.30;99981.03;4990401;28;20153;-69
2021/12/24 08:10:41;;;;;;;5.30;3.67;;;;;;;2.73;56.72;99982.75;4986095;28;20034;-68
2021/12/24 08:13:07;;;;;;;5.15;2.70;;;;;;;2.71;56.98;99989.66;5009305;23;20054;-63
2021/12/24 08:15:32;;;;;;;7.90;3.97;;;;;;;2.72;56.73;99991.34;4995198;28;20038;-66
2021/12/24 08:17:58;;;;;;;5.55;3.33;;;;;;;2.62;57.43;100001.88;4998046;28;20030;-64
2021/12/24 08:20:26;;;;;;;7.22;3.38;;;;;;;2.73;57.05;100018.00;4998217;28;20647;-65
2021/12/24 08:22:55;;;;;;;6.25;4.05;;;;;;;2.76;56.93;100013.63;4996266;28;20399;-65
2021/12/24 08:25:22;;;;;;;4.32;2.63;;;;;;;2.74;56.63;100025.72;4994064;28;20053;-64
2021/12/24 08:27:50;;;;;;;5.10;2.88;;;;;;;2.75;56.77;100022.22;5011677;28;20517;-66
2021/12/24 08:30:16;;;;;;;8.48;3.35;;;;;;;2.55;56.94;100025.25;4987793;28;20053;-63
2021/12/24 08:32:42;;;;;;;5.57;3.70;;;;;;;2.68;56.96;100025.81;4996829;28;20038;-63
2021/12/24 08:35:13;;;;;;;3.78;3.47;;;;;;;2.61;56.80;100026.00;4982009;28;20072;-64
2021/12/24 08:37:40;;;;;;;6.95;4.55;;;;;;;2.60;56.90;100029.44;4993070;28;20030;-66
2021/12/24 08:40:08;;;;;;;6.63;3.92;;;;;;;2.45;57.45;100031.47;4997731;28;20512;-64
2021/12/24 08:42:36;;;;;;;10.30;3.97;;;;;;;2.48;57.26;100039.13;4993608;28;20069;-66
2021/12/24 08:45:05;;;;;;;6.03;3.90;;;;;;;2.68;56.92;100046.47;4995419;28;20114;-67
2021/12/24 08:47:31;;;;;;;7.18;4.18;;;;;;;2.63;56.65;100043.16;4991123;28;20448;-65
2021/12/24 08:49:57;;;;;;;6.90;3.70;;;;;;;2.66;56.40;100048.22;4992160;28;20120;-66
2021/12/24 08:52:22;;;;;;;4.85;3.08;;;;;;;2.69;56.60;100040.44;4997125;28;20751;-65
2021/12/24 08:54:50;;;;;;;7.97;3.75;;;;;;;2.66;56.46;100044.81;4991612;28;20072;-64
2021/12/24 08:57:15;;;;;;;6.68;3.53;;;;;;;2.60;56.86;100040.63;4971543;28;20029;-65
2021/12/24 08:59:41;;;;;;;5.65;4.15;;;;;;;2.57;57.03;100040.69;4995152;28;20550;-66
2021/12/24 09:02:07;;;;;;;6.70;3.88;;;;;;;2.81;56.67;100035.91;5009539;28;20034;-64
2021/12/24 09:04:33;;;;;;;7.80;4.20;;;;;;;2.84;56.65;100030.66;4982959;28;20519;-65
2021/12/24 09:06:59;;;;;;;5.68;3.70;;;;;;;2.84;56.69;100041.00;4994914;28;20026;-67
2021/12/24 09:09:25;;;;;;;7.38;4.50;;;;;;;2.89;56.36;100039.16;5006670;28;20053;-64
2021/12/24 09:11:50;;;;;;;7.47;3.15;;;;;;;2.88;56.45;100043.47;4992928;28;20033;-65
2021/12/24 09:14:19;;;;;;;5.72;3.83;;;;;;;2.97;56.26;100043.28;4993106;28;20042;-66
2021/12/24 09:16:46;;;;;;;5.18;3.08;;;;;;;2.98;56.35;100038.97;4992381;28;20419;-66
2021/12/24 09:19:18;;;;;;;4.80;2.92;;;;;;;3.07;56.05;100046.53;4993281;28;20066;-65
2021/12/24 09:21:44;;;;;;;;;;;;;;;3.03;55.98;100057.78;4994563;28;20523;-64
2021/12/24 09:24:09;;;;;;;5.53;3.28;;;;;;;3.09;56.15;100055.09;4992222;28;19963;-63
2021/12/24 09:26:39;;;;;;;4.53;3.20;;;;;;;3.12;55.88;100056.75;4977494;28;20106;-65
2021/12/24 09:29:09;;;;;;;4.47;2.95;;;;;;;3.12;55.97;100052.44;4994627;28;20042;-65
2021/12/24 09:31:35;;;;;;;4.80;3.33;;;;;;;3.13;55.76;100063.59;4991826;28;20434;-66
2021/12/24 09:34:01;;;;;;;4.82;3.15;;;;;;;3.17;55.99;100067.81;5010408;28;20041;-65
2021/12/24 09:36:29;;;;;;;3.92;2.38;;;;;;;3.22;55.87;100078.03;4993843;28;20038;-66
2021/12/24 09:39:03;;;;;;;6.63;3.00;;;;;;;3.22;56.19;100085.78;4973086;28;20045;-66
2021/12/24 09:41:32;;;;;;;6.40;3.60;;;;;;;3.15;55.67;100078.16;5002067;28;20715;-63
2021/12/24 09:44:03;;;;;;;5.68;3.60;;;;;;;3.06;55.57;100091.28;4994775;28;20467;-66
2021/12/24 09:46:32;;;;;;;4.13;2.55;;;;;;;2.96;55.68;100090.63;4992185;28;20034;-64
2021/12/24 09:48:59;;;;;;;6.60;3.00;;;;;;;2.89;55.70;100093.34;4993252;28;20033;-65
2021/12/24 09:51:26;;;;;;;8.95;3.80;;;;;;;3.05;56.10;100092.19;4994970;28;20041;-65
2021/12/24 09:53:54;;;;;;;9.15;3.95;;;;;;;3.06;56.19;100088.69;4993773;28;20073;-64
2021/12/24 09:56:21;;;;;;;7.60;4.72;;;;;;;3.10;56.22;100095.50;4991944;28;20042;-65
2021/12/24 09:58:49;;;;;;;8.40;5.03;;;;;;;3.14;55.87;100096.31;4976664;28;20042;-64
2021/12/24 10:01:35;;;;;;;9.88;5.75;;;;;;;3.15;55.83;100103.16;4994605;28;20140;-64
2021/12/24 10:04:06;;;;;;;6.78;4.25;;;;;;;3.19;55.74;100097.88;4992080;28;20045;-64
2021/12/24 10:06:32;;;;;;;10.43;5.72;;;;;;;3.16;56.08;100100.53;4992312;28;20563;-65
2021/12/24 10:09:01;;;;;;;5.60;4.20;;;;;;;3.15;55.69;100101.41;4975311;28;20045;-65
2021/12/24 10:11:29;;;;;;;6.18;3.90;;;;;;;3.08;55.47;100107.59;4974776;28;20692;-66
2021/12/24 10:14:04;;;;;;;5.55;3.78;;;;;;;3.08;55.68;100102.44;4964776;28;20141;-63
2021/12/24 10:16:32;;;;;;;6.07;4.32;;;;;;;3.10;55.75;100103.25;4992953;28;20034;-65
2021/12/24 10:19:00;;;;;;;5.30;3.55;;;;;;;3.19;56.18;100103.03;4970752;28;20065;-64
2021/12/24 10:21:29;;;;;;;6.63;4.00;;;;;;;3.25;56.05;100111.53;4974838;28;20041;-66
2021/12/24 10:24:00;;;;;;;5.63;3.63;;;;;;;3.32;55.97;100105.41;4967269;28;20111;-63
2021/12/24 10:26:33;;;;;;;6.15;4.45;;;;;;;3.35;55.60;100100.16;4982839;28;20038;-63
2021/12/24 10:29:13;;;;;;;5.03;3.53;;;;;;;3.36;56.07;100096.72;4992087;28;20064;-65
2021/12/24 10:31:38;;;;;;;5.57;4.00;;;;;;;3.32;55.80;100097.66;4992020;28;20120;-64
2021/12/24 10:34:04;;;;;;;6.68;3.63;;;;;;;3.33;55.59;100099.34;4993259;28;20579;-64
2021/12/24 10:36:30;;;;;;;8.20;3.80;;;;;;;3.41;55.78;100105.19;4989990;28;20049;-66
2021/12/24 10:38:56;;;;;;;5.88;4.13;;;;;;;3.51;56.02;100114.41;4972940;28;20041;-64
2021/12/24 10:41:24;;;;;;;3.92;2.97;;;;;;;3.58;55.61;100103.09;4993698;28;20670;-64
2021/12/24 10:43:51;;;;;;;4.75;2.95;;;;;;;3.69;55.51;100104.56;4992804;28;20532;-64
2021/12/24 10:46:21;;;;;;;4.35;2.50;;;;;;;3.69;55.44;100099.38;4993453;28;20056;-62
2021/12/24 10:49:07;;;;;;;5.35;2.90;;;;;;;3.69;55.41;100107.13;4991588;28;20040;-62
2021/12/24 10:51:59;;;;;;;5.07;2.72;;;;;;;3.73;55.14;100106.19;4990107;28;20669;-65
2021/12/24 10:54:24;;;;;;;7.18;3.90;;;;;;;3.70;55.10;100095.94;4985424;28;20326;-65
2021/12/24 10:56:53;;;;;;;6.85;4.18;;;;;;;3.64;55.35;100099.50;4991715;28;21259;-63
2021/12/24 10:59:39;;;;;;;6.45;3.95;;;;;;;3.58;55.19;100097.03;4991196;28;20468;-64
2021/12/24 11:02:09;;;;;;;6.22;3.55;;;;;;;3.51;55.55;100113.59;4974144;28;20100;-63
2021/12/24 11:04:36;;;;;;;5.70;3.78;;;;;;;3.56;55.39;100104.84;4989885;28;20053;-65
2021/12/24 11:07:02;;;;;;;7.10;4.05;;;;;;;3.54;55.23;100106.63;4991869;28;20064;-68
2021/12/24 11:09:27;;;;;;;5.97;4.53;;;;;;;3.33;55.56;100117.44;4990161;28;20133;-65
2021/12/24 11:11:58;;;;;;;6.57;3.88;;;;;;;3.57;55.73;100111.72;4991523;28;20038;-64
2021/12/24 11:14:23;;;;;;;4.55;2.90;;;;;;;3.65;55.62;100118.44;4991685;28;20042;-65
2021/12/24 11:16:49;;;;;;;7.90;4.15;;;;;;;3.75;55.78;100117.34;4973277;28;20525;-65
2021/12/24 11:19:17;;;;;;;7.35;4.60;;;;;;;3.77;55.43;100119.00;4973907;28;20041;-64
2021/12/24 11:21:42;;;;;;;8.60;4.93;;;;;;;3.70;55.10;100117.44;4989868;28;20050;-66
2021/12/24 11:24:08;;;;;;;9.82;4.93;;;;;;;3.65;55.28;100118.44;4976729;28;20135;-64
2021/12/24 11:26:40;;;;;;;5.60;4.13;;;;;;;3.61;54.94;100120.25;4999692;28;20034;-65
2021/12/24 11:29:07;;;;;;;6.18;4.70;;;;;;;3.50;55.43;100127.41;4977000;28;20041;-65
2021/12/24 11:31:33;;;;;;;8.60;3.92;;;;;;;3.67;55.24;100127.88;5004797;28;20107;-65
2021/12/24 11:34:00;;;;;;;4.88;3.35;;;;;;;3.66;55.49;100125.31;5008464;28;20044;-66
2021/12/24 11:36:28;;;;;;;4.32;2.83;;;;;;;3.73;55.37;100126.84;4996001;28;20034;-62
2021/12/24 11:38:58;;;;;;;7.78;3.45;;;;;;;3.74;55.01;100124.25;4996239;28;20496;-66
2021/12/24 11:41:27;;;;;;;4.78;2.97;;;;;;;3.74;54.92;100121.66;4999222;28;20549;-65
2021/12/24 11:43:56;;;;;;;5.90;3.30;;;;;;;3.74;54.85;100120.81;4981279;28;20069;-64
2021/12/24 11:46:24;;;;;;;8.80;4.55;;;;;;;3.71;55.17;100123.47;4997320;28;20466;-64
2021/12/24 11:48:52;;;;;;;8.60;4.15;;;;;;;3.74;55.49;100118.25;4988372;28;20053;-66
2021/12/24 11:51:19;;;;;;;4.63;2.75;;;;;;;3.80;55.19;100124.06;4995400;28;20112;-65
2021/12/24 11:53:48;;;;;;;6.63;3.13;;;;;;;3.88;54.92;100131.66;4995344;28;20069;-63
2021/12/24 11:56:20;;;;;;;6.53;3.50;;;;;;;3.75;54.89;100125.09;4996563;28;20046;-63
2021/12/24 11:58:52;;;;;;;4.40;2.85;;;;;;;3.79;55.41;100134.47;4995648;28;20042;-64
2021/12/24 12:01:19;;;;;;;4.05;2.25;;;;;;;3.82;55.08;100131.81;4994449;28;20516;-66
2021/12/24 12:03:55;;;;;;;3.08;1.92;;;;;;;3.84;55.03;100130.03;4976969;28;20060;-64
2021/12/24 12:06:20;;;;;;;4.95;2.00;;;;;;;3.91;55.00;100135.91;4995402;28;20038;-66
2021/12/24 12:08:48;;;;;;;2.55;1.60;;;;;;;3.97;55.00;100135.78;4993799;28;20056;-66
2021/12/24 12:11:13;;;;;;;2.33;1.20;;;;;;;3.84;55.07;100130.03;4997250;28;20038;-64
2021/12/24 12:13:41;;;;;;;2.58;1.45;;;;;;;3.89;54.73;100130.75;4995624;28;20046;-65
2021/12/24 12:16:12;;;;;;;2.55;1.42;;;;;;;3.90;54.92;100134.22;4995388;28;21204;-66
2021/12/24 12:18:48;;;;;;;1.98;1.25;;;;;;;3.96;54.92;100144.41;4995567;28;20282;-64
2021/12/24 12:21:18;;;;;;;2.20;1.17;;;;;;;3.97;54.83;100148.69;4995763;28;20585;-66
2021/12/24 12:24:56;;;;;;;2.47;1.40;;;;;;;3.99;54.79;100150.34;4993913;28;20065;-64
2021/12/24 12:26:43;;;;;;;3.15;1.30;;;;;;;3.93;54.64;100149.66;4993962;28;20058;-67
2021/12/24 12:29:30;;;;;;;2.42;1.30;;;;;;;3.96;54.72;100154.75;4992641;28;20042;-66
2021/12/24 12:32:03;;;;;;;2.88;1.65;;;;;;;3.93;54.49;100145.31;4996579;28;20476;-66
2021/12/24 12:34:44;;;;;;;3.25;1.42;;;;;;;3.75;54.52;100151.78;4992575;28;20042;-66
2021/12/24 12:37:14;;;;;;;3.72;1.33;;;;;;;3.85;54.76;100155.03;4996061;28;20068;-65
2021/12/24 12:39:40;;;;;;;3.30;1.60;;;;;;;3.73;55.04;100147.53;4992594;28;20053;-66
2021/12/24 12:42:08;;;;;;;2.55;1.35;;;;;;;3.80;55.01;100156.84;4997028;28;20436;-63
2021/12/24 12:44:37;;;;;;;2.20;1.35;;;;;;;3.89;55.19;100148.03;5000333;28;20068;-64
2021/12/24 12:47:36;;;;;;;2.33;1.38;;;;;;;3.81;54.53;100150.81;5019222;28;20044;-65
2021/12/24 12:50:17;;;;;;;1.98;1.08;;;;;;;3.92;55.04;100159.16;4986819;28;20048;-64
2021/12/24 12:52:42;;;;;;;23.60;11.35;;;;;;;3.99;55.00;100160.69;4996586;28;20113;-66
2021/12/24 12:55:28;;;;;;;5.43;3.58;;;;;;;3.91;54.73;100161.75;4994542;28;20589;-64
2021/12/24 12:58:23;;;;;;;8.48;5.43;;;;;;;3.86;55.05;100161.88;4996011;28;20065;-66
2021/12/24 13:01:04;;;;;;;4.95;2.72;;;;;;;3.97;54.93;100170.22;4993880;28;20073;-65
2021/12/24 13:03:31;;;;;;;3.80;1.90;;;;;;;3.89;54.59;100169.53;4991707;28;20037;-66
2021/12/24 13:06:04;;;;;;;3.95;2.33;;;;;;;3.87;55.02;100162.72;4996577;28;20041;-64
2021/12/24 13:08:37;;;;;;;3.47;2.17;;;;;;;3.78;55.25;100163.78;5006754;28;20049;-65
2021/12/24 13:11:09;;;;;;;3.58;1.67;;;;;;;3.82;55.48;100170.59;4996356;28;20113;-65
2021/12/24 13:13:51;;;;;;;3.10;1.75;;;;;;;3.75;55.58;100172.47;4991871;28;20046;-64
2021/12/24 13:16:18;;;;;;;3.78;1.67;;;;;;;3.74;55.20;100175.09;4992205;28;20700;-66
2021/12/24 13:18:52;;;;;;;3.95;1.90;;;;;;;3.56;55.31;100182.38;4990278;28;20049;-66
2021/12/24 13:24:10;;;;;;;3.20;1.85;;;;;;;3.56;55.49;100190.13;4991966;28;20512;-64
2021/12/24 13:26:35;;;;;;;3.67;1.73;;;;;;;3.56;55.42;100195.28;4994013;28;20065;-64
2021/12/24 13:29:22;;;;;;;4.32;2.30;;;;;;;3.55;55.07;100197.91;4993386;28;20038;-65